Time;durP1;ratioP1;P1;durP2;ratioP2;P2;SDS_P1;SDS_P2;PMS_P1;PMS_P2;Temp;Humidity;BMP_temperature;BMP_pressure;BME280_temperature;BME280_humidity;BME280_pressure;Samples;Min_cycle;Max_cycle;Signal;HPM_P1;HPM_P2
2021/12/05 00:22:59;;;;;;;25.80;11.88;;;4.30;99.90;;;;;;5099672;28;20054;-51
2021/12/05 00:25:29;;;;;;;29.38;11.80;;;4.40;99.90;;;;;;5099087;28;20043;-50
2021/12/05 00:46:57;;;;;;;24.50;10.07;;;4.40;99.90;;;;;;5099000;28;20066;-52
2021/12/05 01:00:24;;;;;;;21.63;8.02;;;4.30;99.90;;;;;;5079162;28;20102;-53
2021/12/05 01:08:25;;;;;;;15.98;7.10;;;4.20;99.90;;;;;;5078199;28;20048;-51
2021/12/05 01:11:30;;;;;;;19.60;6.50;;;4.20;99.90;;;;;;5082141;28;20044;-53
2021/12/05 01:13:57;;;;;;;17.77;6.72;;;4.10;99.90;;;;;;5079548;28;20056;-51
2021/12/05 01:16:26;;;;;;;15.43;6.10;;;4.20;99.90;;;;;;5081897;28;20040;-53
2021/12/05 01:18:52;;;;;;;14.52;6.10;;;4.20;99.90;;;;;;5082602;28;20096;-54
2021/12/05 01:21:22;;;;;;;13.73;5.47;;;4.20;99.90;;;;;;5082784;28;20047;-53
2021/12/05 01:26:25;;;;;;;15.60;5.75;;;4.20;99.90;;;;;;5082817;28;20076;-53
2021/12/05 01:39:24;;;;;;;13.23;5.53;;;4.10;99.90;;;;;;5082722;28;20072;-53
2021/12/05 01:58:25;;;;;;;12.70;5.00;;;4.20;99.90;;;;;;5100723;28;20058;-50
2021/12/05 02:12:38;;;;;;;13.65;5.45;;;4.30;99.90;;;;;;5100301;28;20086;-54
2021/12/05 02:39:47;;;;;;;14.18;7.82;;;4.30;99.90;;;;;;5100407;28;20059;-52
2021/12/05 02:42:24;;;;;;;15.07;6.60;;;4.20;99.90;;;;;;5099625;28;20056;-51
2021/12/05 02:44:50;;;;;;;15.93;6.95;;;4.30;99.90;;;;;;5099504;28;20071;-51
2021/12/05 02:47:20;;;;;;;14.98;7.45;;;4.30;99.90;;;;;;5100261;28;20044;-53
2021/12/05 02:49:48;;;;;;;15.35;7.05;;;4.30;99.90;;;;;;5099727;28;20041;-52
2021/12/05 02:52:23;;;;;;;16.38;7.47;;;4.30;99.90;;;;;;5086167;28;20074;-52
2021/12/05 02:54:53;;;;;;;14.60;8.38;;;4.30;99.90;;;;;;5079162;28;20123;-50
2021/12/05 02:57:30;;;;;;;15.80;7.90;;;4.30;99.90;;;;;;5079365;28;20041;-52
2021/12/05 02:59:58;;;;;;;15.90;8.40;;;4.20;99.90;;;;;;5078554;28;20040;-52
2021/12/05 03:02:37;;;;;;;16.83;8.10;;;4.30;99.90;;;;;;5077976;28;20049;-52
2021/12/05 03:05:08;;;;;;;18.15;8.35;;;4.60;99.90;;;;;;5079431;28;20496;-52
2021/12/05 03:07:38;;;;;;;17.00;8.15;;;4.30;99.90;;;;;;5078821;28;20055;-51
2021/12/05 03:10:05;;;;;;;16.05;7.90;;;4.30;99.90;;;;;;5079153;28;20099;-55
2021/12/05 03:12:34;;;;;;;17.17;8.10;;;4.30;99.90;;;;;;5079181;28;20059;-55
2021/12/05 03:15:04;;;;;;;15.23;7.78;;;4.30;99.90;;;;;;5077953;28;20053;-54
2021/12/05 03:17:30;;;;;;;17.90;8.45;;;4.30;99.90;;;;;;5079333;28;20039;-50
2021/12/05 03:19:56;;;;;;;27.75;9.82;;;4.30;99.90;;;;;;5078938;28;20071;-54
2021/12/05 03:22:21;;;;;;;15.18;7.97;;;4.20;99.90;;;;;;5077383;28;20056;-53
2021/12/05 03:24:48;;;;;;;18.80;7.55;;;4.30;99.90;;;;;;5078556;28;20090;-53
2021/12/05 03:27:14;;;;;;;16.65;7.28;;;4.20;99.90;;;;;;5079011;28;20504;-52
2021/12/05 03:29:40;;;;;;;18.85;8.32;;;4.20;99.90;;;;;;5079154;28;20071;-51
2021/12/05 03:32:06;;;;;;;16.00;7.63;;;4.10;99.90;;;;;;5077895;28;20842;-50
2021/12/05 03:34:33;;;;;;;14.63;7.75;;;4.20;99.90;;;;;;5077652;28;20048;-51
2021/12/05 03:36:59;;;;;;;18.23;8.23;;;4.10;99.90;;;;;;5078195;28;20052;-53
2021/12/05 03:39:27;;;;;;;15.10;8.05;;;4.10;99.90;;;;;;5078758;28;20060;-52
2021/12/05 03:41:54;;;;;;;16.35;7.60;;;4.10;99.90;;;;;;5078031;28;20083;-54
2021/12/05 03:44:25;;;;;;;19.48;7.97;;;4.10;99.90;;;;;;5078333;28;20052;-50
2021/12/05 03:46:53;;;;;;;21.35;9.40;;;4.10;99.90;;;;;;5078708;28;20105;-51
2021/12/05 03:49:19;;;;;;;17.73;8.57;;;4.10;99.90;;;;;;5078326;28;20052;-51
2021/12/05 03:51:50;;;;;;;14.48;7.65;;;4.00;99.90;;;;;;5087793;28;20044;-50
2021/12/05 03:54:16;;;;;;;16.90;8.00;;;4.00;99.90;;;;;;5098498;28;20070;-53
2021/12/05 03:56:43;;;;;;;16.95;8.55;;;4.00;99.90;;;;;;5098585;28;20048;-54
2021/12/05 03:59:10;;;;;;;18.77;9.70;;;4.00;99.90;;;;;;5098474;28;20042;-53
2021/12/05 04:01:36;;;;;;;19.45;8.75;;;4.00;99.90;;;;;;5098497;28;20088;-54
2021/12/05 04:04:03;;;;;;;21.25;9.18;;;4.00;99.90;;;;;;5098994;28;20100;-52
2021/12/05 04:06:29;;;;;;;22.77;9.35;;;4.00;99.90;;;;;;5096712;28;20047;-50
2021/12/05 04:08:58;;;;;;;18.42;8.82;;;4.00;99.90;;;;;;5098801;28;20127;-54
2021/12/05 04:11:30;;;;;;;21.95;9.00;;;4.00;99.90;;;;;;5097900;28;20040;-53
2021/12/05 04:13:57;;;;;;;18.00;9.60;;;4.00;99.90;;;;;;5098505;28;20050;-51
2021/12/05 04:16:26;;;;;;;16.23;9.02;;;4.00;99.90;;;;;;5098385;28;20266;-54
2021/12/05 04:18:52;;;;;;;18.63;9.20;;;4.00;99.90;;;;;;5098157;28;20051;-53
2021/12/05 04:21:19;;;;;;;21.52;10.25;;;4.00;99.90;;;;;;5098777;28;20118;-53
2021/12/05 04:23:46;;;;;;;19.35;9.82;;;3.90;99.90;;;;;;5098183;28;20036;-54
2021/12/05 04:26:11;;;;;;;19.98;9.75;;;3.90;99.90;;;;;;5098535;28;20044;-52
2021/12/05 04:28:39;;;;;;;21.48;10.23;;;3.80;99.90;;;;;;5097728;28;20052;-53
2021/12/05 04:31:08;;;;;;;22.20;10.73;;;3.80;99.90;;;;;;5098392;28;20480;-53
2021/12/05 04:33:34;;;;;;;24.63;11.10;;;4.10;99.90;;;;;;5097937;28;20059;-53
2021/12/05 04:36:00;;;;;;;24.80;10.73;;;3.70;99.90;;;;;;5098074;28;20062;-54
2021/12/05 04:38:27;;;;;;;22.45;11.38;;;3.70;99.90;;;;;;5098594;28;20044;-53
2021/12/05 04:40:53;;;;;;;28.50;11.82;;;3.70;99.90;;;;;;5097774;28;20070;-52
2021/12/05 04:43:19;;;;;;;22.55;11.52;;;3.70;99.90;;;;;;5098530;28;20052;-53
2021/12/05 04:45:44;;;;;;;29.67;13.13;;;3.80;99.90;;;;;;5101961;28;20044;-54
2021/12/05 04:48:11;;;;;;;27.23;12.07;;;3.80;99.90;;;;;;5102152;28;20040;-54
2021/12/05 04:50:38;;;;;;;27.50;12.05;;;3.80;99.90;;;;;;5101845;28;20055;-52
2021/12/05 04:53:05;;;;;;;21.70;11.93;;;3.80;99.90;;;;;;5081800;28;20048;-52
2021/12/05 04:55:31;;;;;;;28.33;12.68;;;3.80;99.90;;;;;;5082269;28;20055;-53
2021/12/05 04:57:57;;;;;;;32.20;13.68;;;3.90;99.90;;;;;;5081666;28;20041;-54
2021/12/05 05:00:33;;;;;;;28.45;13.20;;;3.80;99.90;;;;;;5081770;28;20045;-53
2021/12/05 05:02:59;;;;;;;25.20;14.13;;;3.90;99.90;;;;;;5081158;28;20044;-53
2021/12/05 05:05:27;;;;;;;28.50;13.23;;;3.70;99.90;;;;;;5080483;28;20048;-54
2021/12/05 05:07:53;;;;;;;23.83;12.52;;;3.80;99.90;;;;;;5079885;28;20045;-53
2021/12/05 05:10:28;;;;;;;28.25;13.43;;;3.70;99.90;;;;;;5081333;28;20075;-54
2021/12/05 05:12:55;;;;;;;29.15;13.60;;;3.80;99.90;;;;;;5081421;28;20058;-52
2021/12/05 05:15:24;;;;;;;30.52;13.73;;;3.70;99.90;;;;;;5081286;28;20049;-53
2021/12/05 05:17:51;;;;;;;29.08;14.45;;;3.80;99.90;;;;;;5081505;28;20041;-55
2021/12/05 05:20:25;;;;;;;29.65;13.15;;;3.80;99.90;;;;;;5081031;28;20068;-52
2021/12/05 05:43:08;;;;;;;29.58;14.00;;;3.80;99.90;;;;;;5080410;28;20078;-52
2021/12/05 05:45:15;;;;;;;25.50;13.27;;;3.80;99.90;;;;;;5069580;28;20100;-53
2021/12/05 05:50:15;;;;;;;23.75;13.10;;;3.80;99.90;;;;;;5080311;28;20060;-53
2021/12/05 05:52:41;;;;;;;29.70;12.70;;;3.80;99.90;;;;;;5098093;28;20118;-51
2021/12/05 05:55:07;;;;;;;29.75;13.25;;;3.80;99.90;;;;;;5099250;28;20063;-54
2021/12/05 05:57:48;;;;;;;28.08;12.70;;;3.70;99.90;;;;;;5100954;28;20040;-53
2021/12/05 06:00:27;;;;;;;26.52;13.60;;;3.70;99.90;;;;;;5101135;28;20076;-53
2021/12/05 06:05:38;;;;;;;26.15;13.30;;;3.70;99.90;;;;;;5100810;28;20046;-50
2021/12/05 06:08:04;;;;;;;27.75;13.38;;;3.70;99.90;;;;;;5101140;28;20047;-54
2021/12/05 06:10:31;;;;;;;29.17;12.77;;;3.60;99.90;;;;;;5100195;28;20044;-53
2021/12/05 06:12:58;;;;;;;22.83;11.95;;;3.60;99.90;;;;;;5099059;28;20048;-53
2021/12/05 06:15:26;;;;;;;24.30;11.70;;;3.60;99.90;;;;;;5100190;28;20044;-54
2021/12/05 06:17:53;;;;;;;25.25;13.15;;;3.60;99.90;;;;;;5100556;28;20400;-54
2021/12/05 06:20:24;;;;;;;31.58;12.02;;;3.60;99.90;;;;;;5099903;28;20103;-54
2021/12/05 06:22:50;;;;;;;23.83;12.32;;;3.60;99.90;;;;;;5100655;28;20051;-52
2021/12/05 06:25:23;;;;;;;30.45;11.88;;;3.70;99.90;;;;;;5100563;28;20052;-52
2021/12/05 06:27:54;;;;;;;28.55;12.48;;;3.60;99.90;;;;;;5100075;28;20047;-53
2021/12/05 06:30:45;;;;;;;26.48;11.80;;;3.60;99.90;;;;;;5100527;28;20641;-53
2021/12/05 06:46:05;;;;;;;23.60;10.63;;;3.50;99.90;;;;;;5099511;28;20055;-53
2021/12/05 06:48:31;;;;;;;23.30;10.30;;;3.50;99.90;;;;;;5100246;28;20079;-53
2021/12/05 06:50:57;;;;;;;21.95;10.57;;;3.50;99.90;;;;;;5097246;28;20439;-53
2021/12/05 06:53:23;;;;;;;30.80;12.10;;;3.40;99.90;;;;;;5079620;28;20037;-54
2021/12/05 06:55:48;;;;;;;22.77;9.48;;;3.50;99.90;;;;;;5080154;28;20036;-54
2021/12/05 06:58:14;;;;;;;26.48;10.88;;;3.50;99.90;;;;;;5079510;28;20531;-50
2021/12/05 07:00:40;;;;;;;21.95;9.82;;;3.40;99.90;;;;;;5079926;28;20055;-54
2021/12/05 07:03:08;;;;;;;18.67;9.45;;;3.50;99.90;;;;;;5077846;28;20075;-52
2021/12/05 07:05:43;;;;;;;20.02;9.90;;;3.50;99.90;;;;;;5079081;28;20066;-53
2021/12/05 07:08:12;;;;;;;20.88;8.75;;;3.80;99.90;;;;;;5079513;28;20476;-53
2021/12/05 07:11:04;;;;;;;24.48;10.50;;;3.50;99.90;;;;;;5079370;28;20442;-51
2021/12/05 07:14:00;;;;;;;15.80;9.35;;;3.50;99.90;;;;;;5078724;28;20075;-52
2021/12/05 07:17:01;;;;;;;19.77;8.55;;;3.50;99.90;;;;;;5078891;28;20037;-54
2021/12/05 07:24:24;;;;;;;17.20;8.55;;;3.50;99.90;;;;;;5078898;28;20048;-53
2021/12/05 07:40:30;;;;;;;21.10;9.75;;;3.50;99.90;;;;;;5078330;28;20060;-53
2021/12/05 07:43:03;;;;;;;21.25;7.97;;;3.50;99.90;;;;;;5079117;28;20059;-54
2021/12/05 07:45:41;;;;;;;20.17;7.57;;;3.60;99.90;;;;;;5078646;28;20044;-50
2021/12/05 07:48:12;;;;;;;18.17;8.13;;;3.50;99.90;;;;;;5079115;28;20044;-54
2021/12/05 07:50:53;;;;;;;20.13;8.02;;;3.50;99.90;;;;;;5078995;28;20055;-51
2021/12/05 07:53:35;;;;;;;19.20;8.52;;;3.50;99.90;;;;;;5098737;28;20051;-52
2021/12/05 07:56:13;;;;;;;20.58;8.82;;;3.50;99.90;;;;;;5099194;28;20069;-55
2021/12/05 08:14:54;;;;;;;28.65;13.07;;;3.60;99.90;;;;;;5098281;28;20406;-53
2021/12/05 08:17:21;;;;;;;;;;;3.60;99.90;;;;;;5097939;28;20087;-51
2021/12/05 08:19:47;;;;;;;17.23;7.93;;;3.70;99.90;;;;;;5098205;28;19920;-55
2021/12/05 08:22:14;;;;;;;20.80;8.13;;;3.50;99.90;;;;;;5098630;28;20086;-54
2021/12/05 08:24:40;;;;;;;21.38;8.82;;;3.60;99.90;;;;;;5098013;28;20040;-55
2021/12/05 08:27:09;;;;;;;22.27;8.07;;;3.70;99.90;;;;;;5098502;28;20043;-55
2021/12/05 08:29:51;;;;;;;21.98;8.38;;;3.70;99.90;;;;;;5098824;28;20044;-53
2021/12/05 08:35:02;;;;;;;19.25;7.72;;;3.70;99.90;;;;;;5098833;28;20063;-54
2021/12/05 08:38:22;;;;;;;18.30;7.70;;;3.80;99.90;;;;;;5097709;28;20077;-53
2021/12/05 08:40:37;;;;;;;22.20;8.43;;;3.70;99.90;;;;;;5097393;28;20044;-52
2021/12/05 09:21:47;;;;;;;24.13;10.82;;;4.30;99.90;;;;;;5078064;28;20116;-53
2021/12/05 09:27:48;;;;;;;20.15;11.02;;;4.30;99.90;;;;;;5043183;28;20047;-55
2021/12/05 09:30:35;;;;;;;19.45;10.95;;;4.40;99.90;;;;;;5079472;28;20056;-54
2021/12/05 09:39:41;;;;;;;23.27;10.63;;;4.50;99.90;;;;;;5047256;28;20201;-53
2021/12/05 10:06:52;;;;;;;25.40;11.07;;;4.50;99.90;;;;;;5100500;28;20073;-53
2021/12/05 10:15:09;;;;;;;21.17;10.55;;;4.60;99.90;;;;;;5100530;28;20044;-53
2021/12/05 10:17:53;;;;;;;23.35;12.57;;;4.50;99.90;;;;;;5101104;28;20157;-53
2021/12/05 10:37:55;;;;;;;24.95;10.65;;;4.40;99.90;;;;;;5100386;28;20048;-54
2021/12/05 10:40:35;;;;;;;21.15;11.90;;;4.50;99.90;;;;;;5098473;28;20103;-54
2021/12/05 10:43:08;;;;;;;26.95;11.88;;;4.40;99.90;;;;;;5099756;28;20048;-54
2021/12/05 10:45:48;;;;;;;27.60;12.57;;;4.40;99.90;;;;;;5099780;28;20036;-54
2021/12/05 10:48:27;;;;;;;24.05;12.18;;;4.50;99.90;;;;;;5100380;28;20064;-53
2021/12/05 10:51:14;;;;;;;28.25;12.88;;;4.40;99.90;;;;;;5097882;28;20066;-54
2021/12/05 10:54:07;;;;;;;23.13;11.98;;;4.40;99.90;;;;;;5079579;28;20040;-54
2021/12/05 10:56:41;;;;;;;25.85;11.98;;;4.50;99.90;;;;;;5077015;28;20423;-54
2021/12/05 10:59:13;;;;;;;23.52;12.18;;;4.50;99.90;;;;;;5079689;28;20075;-52
2021/12/05 11:01:59;;;;;;;;;;;4.50;99.90;;;;;;5080127;28;20045;-52
2021/12/05 11:04:31;;;;;;;26.60;12.20;;;4.50;99.90;;;;;;5079253;28;19960;-54
2021/12/05 11:07:14;;;;;;;23.00;11.10;;;4.50;99.90;;;;;;5079052;28;20041;-53
2021/12/05 11:09:42;;;;;;;20.23;11.75;;;4.50;99.90;;;;;;5079488;28;20040;-52
2021/12/05 11:12:16;;;;;;;20.63;10.82;;;4.50;99.90;;;;;;5079738;28;20040;-51
2021/12/05 11:14:45;;;;;;;23.75;11.82;;;4.50;99.90;;;;;;5078988;28;20072;-49
2021/12/05 11:17:18;;;;;;;22.45;10.23;;;4.50;99.90;;;;;;5079848;28;20048;-50
2021/12/05 11:19:51;;;;;;;21.10;11.02;;;4.60;99.90;;;;;;5078763;28;20048;-53
2021/12/05 11:22:18;;;;;;;;;;;4.60;99.90;;;;;;5079942;28;20044;-51
2021/12/05 11:24:51;;;;;;;25.90;12.55;;;4.60;99.90;;;;;;5079165;28;19985;-53
2021/12/05 11:27:18;;;;;;;;;;;4.60;99.90;;;;;;5079422;28;20051;-54
2021/12/05 11:29:57;;;;;;;18.23;9.90;;;4.60;99.90;;;;;;5079546;28;19920;-52
2021/12/05 11:32:36;;;;;;;23.45;10.68;;;4.50;99.90;;;;;;5077066;28;20126;-50
2021/12/05 11:35:39;;;;;;;23.40;11.18;;;4.60;99.90;;;;;;5078986;28;20036;-53
2021/12/05 11:38:09;;;;;;;25.80;10.25;;;4.60;99.90;;;;;;5079122;28;20534;-53
2021/12/05 11:40:54;;;;;;;21.50;10.85;;;4.60;99.90;;;;;;5078243;28;20114;-53
2021/12/05 11:43:36;;;;;;;22.52;12.05;;;4.60;99.90;;;;;;5078928;28;20044;-54
2021/12/05 11:46:08;;;;;;;23.20;11.70;;;4.70;99.90;;;;;;5078615;28;20100;-54
2021/12/05 11:48:41;;;;;;;19.55;10.55;;;4.70;99.90;;;;;;5078600;28;20040;-52
2021/12/05 11:51:44;;;;;;;23.60;11.23;;;4.80;99.90;;;;;;5083650;28;20040;-52
2021/12/05 11:54:24;;;;;;;22.92;11.30;;;4.70;99.90;;;;;;5087741;28;20507;-53
2021/12/05 11:57:06;;;;;;;21.52;11.52;;;4.80;99.90;;;;;;5099008;28;20068;-53
2021/12/05 11:59:41;;;;;;;26.52;11.82;;;4.80;99.90;;;;;;5099146;28;20048;-53
2021/12/05 12:02:14;;;;;;;21.95;10.93;;;4.80;99.90;;;;;;5098510;28;20058;-50
2021/12/05 12:04:57;;;;;;;21.42;11.07;;;4.90;99.90;;;;;;5099048;28;20097;-53
2021/12/05 12:07:28;;;;;;;20.08;10.43;;;4.90;99.90;;;;;;5098366;28;20048;-53
2021/12/05 12:10:00;;;;;;;18.87;9.90;;;5.00;99.90;;;;;;5098601;28;20036;-53
2021/12/05 12:12:26;;;;;;;20.05;9.38;;;4.90;99.90;;;;;;5098753;28;20036;-51
2021/12/05 12:14:52;;;;;;;21.50;10.57;;;5.00;99.90;;;;;;5098244;28;20058;-52
2021/12/05 12:17:18;;;;;;;20.83;10.80;;;5.30;99.90;;;;;;5098997;28;20063;-52
2021/12/05 12:19:47;;;;;;;17.30;10.48;;;5.10;99.90;;;;;;5098016;28;20048;-52
2021/12/05 12:22:16;;;;;;;24.38;9.65;;;5.20;99.90;;;;;;5097227;28;20454;-53
2021/12/05 12:24:41;;;;;;;23.23;10.23;;;5.20;99.90;;;;;;5098407;28;20036;-50
2021/12/05 12:27:09;;;;;;;21.52;9.23;;;5.20;99.90;;;;;;5098697;28;20108;-52
2021/12/05 12:29:36;;;;;;;18.63;9.98;;;5.20;99.90;;;;;;5098664;28;20044;-53
2021/12/05 12:32:11;;;;;;;19.85;10.57;;;5.20;99.90;;;;;;5098186;28;20044;-54
2021/12/05 12:34:37;;;;;;;17.00;9.30;;;5.20;99.90;;;;;;5097185;28;20122;-54
2021/12/05 12:37:05;;;;;;;19.77;9.55;;;5.20;99.90;;;;;;5097953;28;20044;-53
2021/12/05 12:39:40;;;;;;;23.83;10.70;;;5.30;99.90;;;;;;5097087;28;20060;-54
2021/12/05 12:42:13;;;;;;;23.45;9.75;;;5.20;99.90;;;;;;5096994;28;20098;-53
2021/12/05 12:44:59;;;;;;;;;;;5.20;99.90;;;;;;5098259;28;20052;-53
2021/12/05 12:47:42;;;;;;;16.45;9.27;;;5.30;99.90;;;;;;5098451;28;20023;-53
2021/12/05 12:50:22;;;;;;;20.40;10.18;;;5.30;99.90;;;;;;5096347;28;20055;-54
2021/12/05 12:53:03;;;;;;;19.35;9.52;;;5.30;99.90;;;;;;5079520;28;20063;-54
2021/12/05 12:55:33;;;;;;;21.15;10.35;;;5.20;99.90;;;;;;5078037;28;20121;-53
2021/12/05 12:58:03;;;;;;;16.73;9.75;;;5.20;99.90;;;;;;5077559;28;20535;-54
2021/12/05 13:00:31;;;;;;;20.05;9.73;;;5.20;99.90;;;;;;5078149;28;20103;-52
2021/12/05 13:11:55;;;;;;;15.77;9.68;;;5.20;99.90;;;;;;5081376;28;20059;-53
2021/12/05 13:14:21;;;;;;;15.20;10.02;;;5.20;99.90;;;;;;5081324;28;20155;-54
2021/12/05 13:16:48;;;;;;;21.17;10.45;;;5.10;99.90;;;;;;5081992;28;20053;-53
2021/12/05 13:19:26;;;;;;;17.33;9.40;;;5.20;99.90;;;;;;5081519;28;20044;-54
2021/12/05 13:21:54;;;;;;;20.38;10.38;;;5.20;99.90;;;;;;5081864;28;20551;-53
2021/12/05 13:24:39;;;;;;;19.48;10.50;;;5.20;99.90;;;;;;5079709;28;20051;-54
2021/12/05 13:27:24;;;;;;;20.08;10.57;;;5.10;99.90;;;;;;5081414;28;20044;-53
2021/12/05 13:29:53;;;;;;;18.85;9.35;;;5.20;99.90;;;;;;5081701;28;20048;-52
2021/12/05 13:32:26;;;;;;;19.42;10.63;;;5.20;99.90;;;;;;5079365;28;20579;-52
2021/12/05 13:34:52;;;;;;;21.50;9.85;;;5.40;99.90;;;;;;5081590;28;20037;-52
2021/12/05 13:37:36;;;;;;;22.35;11.00;;;5.30;99.90;;;;;;5079025;28;20041;-53
2021/12/05 13:40:08;;;;;;;18.15;10.40;;;5.30;99.90;;;;;;5080861;28;20082;-53
2021/12/05 13:42:44;;;;;;;17.20;9.45;;;5.30;99.90;;;;;;5081331;28;20055;-54
2021/12/05 13:45:25;;;;;;;18.13;9.52;;;5.30;99.90;;;;;;5080853;28;20076;-54
2021/12/05 13:47:51;;;;;;;21.40;9.98;;;5.30;99.90;;;;;;5081208;28;20052;-54
2021/12/05 13:50:23;;;;;;;19.92;9.82;;;5.40;99.90;;;;;;5080765;28;20037;-55
2021/12/05 13:53:14;;;;;;;16.13;8.98;;;5.40;99.90;;;;;;5098040;28;20075;-52
2021/12/05 13:55:59;;;;;;;16.35;8.13;;;5.30;99.90;;;;;;5101609;28;20052;-53
2021/12/05 13:58:49;;;;;;;17.20;8.82;;;5.30;99.90;;;;;;5099540;28;20059;-54
2021/12/05 14:01:21;;;;;;;18.58;9.25;;;5.30;99.90;;;;;;5101262;28;20099;-54
2021/12/05 14:03:55;;;;;;;19.98;9.73;;;5.30;99.90;;;;;;5101448;28;20040;-50
2021/12/05 14:06:35;;;;;;;17.25;9.93;;;5.20;99.90;;;;;;5100745;28;20044;-52
2021/12/05 14:09:14;;;;;;;17.75;9.45;;;5.20;99.90;;;;;;5101220;28;20051;-50
2021/12/05 14:11:50;;;;;;;15.15;9.20;;;5.20;99.90;;;;;;5100690;28;20044;-53
2021/12/05 14:14:19;;;;;;;19.27;10.38;;;5.20;99.90;;;;;;5100547;28;20046;-53
2021/12/05 14:16:48;;;;;;;19.40;9.63;;;5.20;99.90;;;;;;5100848;28;20066;-50
2021/12/05 14:19:19;;;;;;;18.92;10.70;;;5.20;99.90;;;;;;5100677;28;20028;-53
2021/12/05 14:21:47;;;;;;;22.27;9.73;;;5.20;99.90;;;;;;5101008;28;20072;-52
2021/12/05 14:24:15;;;;;;;16.63;9.38;;;5.20;99.90;;;;;;5100309;28;20087;-53
2021/12/05 14:26:41;;;;;;;16.23;10.32;;;5.20;99.90;;;;;;5100619;28;20570;-51
2021/12/05 14:29:12;;;;;;;18.48;10.48;;;5.10;99.90;;;;;;5100490;28;20044;-53
2021/12/05 14:31:52;;;;;;;22.13;11.80;;;5.10;99.90;;;;;;5100449;28;20069;-53
2021/12/05 14:34:18;;;;;;;20.85;9.93;;;5.20;99.90;;;;;;5100878;28;20063;-53
2021/12/05 14:36:57;;;;;;;20.25;11.30;;;5.10;99.90;;;;;;5098378;28;20044;-53
2021/12/05 14:39:27;;;;;;;19.88;9.93;;;5.10;99.90;;;;;;5099330;28;20662;-53
2021/12/05 14:41:58;;;;;;;19.10;10.00;;;5.10;99.90;;;;;;5100028;28;20635;-52
2021/12/05 14:44:24;;;;;;;22.75;10.35;;;5.10;99.90;;;;;;5099974;28;20056;-53
2021/12/05 14:46:55;;;;;;;20.83;11.25;;;5.10;99.90;;;;;;5100848;28;20703;-52
2021/12/05 14:49:23;;;;;;;19.20;9.70;;;5.10;99.90;;;;;;5099876;28;20040;-54
2021/12/05 14:51:49;;;;;;;23.35;11.38;;;5.10;99.90;;;;;;5089730;28;20047;-54
2021/12/05 14:54:33;;;;;;;23.13;11.20;;;5.10;99.90;;;;;;5077984;28;20588;-52
2021/12/05 14:57:04;;;;;;;19.77;9.90;;;5.00;99.90;;;;;;5079943;28;20036;-52
2021/12/05 14:59:29;;;;;;;19.90;10.52;;;5.00;99.90;;;;;;5080109;28;20045;-53
2021/12/05 15:01:57;;;;;;;23.63;11.38;;;4.90;99.90;;;;;;5077969;28;20092;-53
2021/12/05 15:04:28;;;;;;;20.60;12.07;;;5.00;99.90;;;;;;5080171;28;20055;-52
2021/12/05 15:06:54;;;;;;;18.88;11.32;;;4.90;99.90;;;;;;5078911;28;20071;-51
2021/12/05 15:09:22;;;;;;;21.38;11.10;;;4.90;99.90;;;;;;5079774;28;20040;-52
2021/12/05 15:11:55;;;;;;;21.55;10.60;;;4.90;99.90;;;;;;5079489;28;20143;-51
2021/12/05 15:14:21;;;;;;;;;;;4.90;99.90;;;;;;5079754;28;20048;-53
2021/12/05 15:16:59;;;;;;;23.05;10.65;;;4.90;99.90;;;;;;5080050;28;19966;-54
2021/12/05 15:19:26;;;;;;;24.73;12.05;;;4.90;99.90;;;;;;5079173;28;20458;-52
2021/12/05 15:21:52;;;;;;;19.75;10.38;;;4.90;99.90;;;;;;5079552;28;20040;-53
2021/12/05 15:24:21;;;;;;;23.42;12.55;;;4.90;99.90;;;;;;5077431;28;20041;-50
2021/12/05 15:26:48;;;;;;;25.13;12.52;;;4.80;99.90;;;;;;5078805;28;20078;-54
2021/12/05 15:29:14;;;;;;;21.95;12.27;;;4.90;99.90;;;;;;5078974;28;20496;-54
2021/12/05 15:31:42;;;;;;;23.90;11.68;;;4.80;99.90;;;;;;5078943;28;20048;-52
2021/12/05 15:34:31;;;;;;;22.80;13.27;;;4.70;99.90;;;;;;5079344;28;20055;-53
2021/12/05 15:36:59;;;;;;;22.02;12.50;;;4.80;99.90;;;;;;5078672;28;20044;-51
2021/12/05 15:39:27;;;;;;;26.50;12.10;;;4.70;99.90;;;;;;5079002;28;20586;-54
2021/12/05 15:41:56;;;;;;;25.48;12.07;;;4.70;99.90;;;;;;5078814;28;20064;-54
2021/12/05 15:44:24;;;;;;;23.33;11.77;;;4.70;99.90;;;;;;5078377;28;20090;-52
2021/12/05 15:46:50;;;;;;;26.92;12.63;;;4.70;99.90;;;;;;5079350;28;20500;-54
2021/12/05 15:49:15;;;;;;;25.67;12.73;;;4.60;99.90;;;;;;5078370;28;20064;-54
2021/12/05 15:51:41;;;;;;;25.90;12.20;;;4.70;99.90;;;;;;5088147;28;20036;-54
2021/12/05 15:54:07;;;;;;;25.65;13.32;;;4.70;99.90;;;;;;5098106;28;20044;-54
2021/12/05 15:56:33;;;;;;;23.80;12.18;;;4.60;99.90;;;;;;5098706;28;20569;-51
2021/12/05 15:59:02;;;;;;;27.42;14.38;;;4.60;99.90;;;;;;5098861;28;20410;-51
2021/12/05 16:01:29;;;;;;;22.77;12.88;;;4.60;99.90;;;;;;5098383;28;20051;-53
2021/12/05 16:04:06;;;;;;;24.63;12.43;;;4.50;99.90;;;;;;5097823;28;20052;-51
2021/12/05 16:06:35;;;;;;;33.72;16.50;;;4.50;99.90;;;;;;5097937;28;20051;-53
2021/12/05 16:09:14;;;;;;;33.80;18.55;;;4.50;99.90;;;;;;5098975;28;20053;-53
2021/12/05 16:11:41;;;;;;;23.80;14.25;;;4.50;99.90;;;;;;5098382;28;20055;-51
2021/12/05 16:14:06;;;;;;;26.25;13.90;;;4.50;99.90;;;;;;5098277;28;20043;-53
2021/12/05 16:16:34;;;;;;;21.75;14.68;;;4.50;99.90;;;;;;5098860;28;20100;-52
2021/12/05 16:19:06;;;;;;;30.48;14.25;;;4.40;99.90;;;;;;5098247;28;20047;-53
2021/12/05 16:21:33;;;;;;;;;;;4.40;99.90;;;;;;5099008;28;20032;-54
2021/12/05 16:24:17;;;;;;;27.42;13.30;;;4.40;99.90;;;;;;5097654;28;19946;-54
2021/12/05 16:26:45;;;;;;;24.70;13.80;;;4.40;99.90;;;;;;5098329;28;20439;-53
2021/12/05 16:29:14;;;;;;;24.15;14.60;;;4.40;99.90;;;;;;5098243;28;20055;-51
2021/12/05 16:31:41;;;;;;;26.52;14.45;;;4.40;99.90;;;;;;5098133;28;20036;-53
2021/12/05 16:34:10;;;;;;;25.52;14.68;;;4.30;99.90;;;;;;5098525;28;20083;-53
2021/12/05 16:36:57;;;;;;;24.50;14.70;;;4.40;99.90;;;;;;5097981;28;20044;-53
2021/12/05 16:39:37;;;;;;;22.60;13.63;;;4.40;99.90;;;;;;5098270;28;20044;-54
2021/12/05 16:42:12;;;;;;;28.83;16.08;;;4.40;99.90;;;;;;5098219;28;20134;-52
2021/12/05 16:44:40;;;;;;;27.20;15.05;;;4.40;99.90;;;;;;5097541;28;20052;-52
2021/12/05 16:47:16;;;;;;;31.63;16.65;;;4.40;99.90;;;;;;5098273;28;20079;-54
2021/12/05 16:49:46;;;;;;;25.90;15.45;;;4.40;99.90;;;;;;5097431;28;20054;-54
2021/12/05 16:52:22;;;;;;;28.27;15.63;;;4.30;99.90;;;;;;5084404;28;20056;-54
2021/12/05 16:54:55;;;;;;;25.25;16.05;;;4.30;99.90;;;;;;5077969;28;20048;-54
2021/12/05 16:57:24;;;;;;;26.25;15.48;;;4.30;99.90;;;;;;5077661;28;20685;-52
2021/12/05 16:59:55;;;;;;;29.60;15.98;;;4.40;99.90;;;;;;5077806;28;20511;-54
2021/12/05 17:02:30;;;;;;;26.37;16.40;;;4.40;99.90;;;;;;5077179;28;20108;-53
2021/12/05 17:05:18;;;;;;;26.55;15.98;;;4.30;99.90;;;;;;5077626;28;20310;-54
2021/12/05 17:08:02;;;;;;;26.30;15.90;;;4.20;99.90;;;;;;5077785;28;20523;-51
2021/12/05 17:10:31;;;;;;;26.20;15.75;;;4.30;99.90;;;;;;5077363;28;20061;-54
2021/12/05 17:13:17;;;;;;;28.33;17.58;;;4.20;99.90;;;;;;5077909;28;20040;-55
2021/12/05 17:15:48;;;;;;;27.80;15.88;;;4.20;99.90;;;;;;5076655;28;20083;-53
2021/12/05 17:18:23;;;;;;;26.92;15.25;;;4.20;99.90;;;;;;5077504;28;20056;-54
2021/12/05 17:21:02;;;;;;;27.55;14.48;;;4.20;99.90;;;;;;5077977;28;20045;-52
2021/12/05 17:23:33;;;;;;;28.20;15.20;;;4.10;99.90;;;;;;5077140;28;20048;-50
2021/12/05 17:26:22;;;;;;;26.42;14.82;;;4.10;99.90;;;;;;5077584;28;20551;-54
2021/12/05 17:28:53;;;;;;;26.08;15.55;;;4.10;99.90;;;;;;5077433;28;20104;-53
2021/12/05 17:31:49;;;;;;;27.30;15.27;;;4.20;99.90;;;;;;5076970;28;20045;-51
2021/12/05 17:34:21;;;;;;;29.40;16.90;;;4.20;99.90;;;;;;5076492;28;20108;-54
2021/12/05 17:37:04;;;;;;;26.48;15.43;;;4.10;99.90;;;;;;5076817;28;20051;-53
2021/12/05 17:39:33;;;;;;;22.95;14.70;;;4.10;99.90;;;;;;5077256;28;20055;-54
2021/12/05 17:42:04;;;;;;;29.25;15.63;;;4.10;99.90;;;;;;5077198;28;20048;-52
2021/12/05 17:44:30;;;;;;;30.02;16.25;;;4.10;99.90;;;;;;5076852;28;20068;-54
2021/12/05 17:47:04;;;;;;;25.45;16.10;;;4.10;99.90;;;;;;5077725;28;20106;-54
2021/12/05 17:49:33;;;;;;;29.63;16.05;;;4.10;99.90;;;;;;5076984;28;20044;-54
2021/12/05 17:52:00;;;;;;;26.40;15.55;;;4.10;99.90;;;;;;5091885;28;20096;-53
2021/12/05 17:54:31;;;;;;;29.30;16.45;;;4.10;99.90;;;;;;5100821;28;20050;-54
2021/12/05 17:57:04;;;;;;;29.85;16.88;;;4.10;99.90;;;;;;5101088;28;20067;-54
2021/12/05 17:59:49;;;;;;;27.40;16.25;;;4.00;99.90;;;;;;5100103;28;20051;-52
2021/12/05 18:02:42;;;;;;;25.60;15.80;;;3.90;99.90;;;;;;5100657;28;20566;-53
2021/12/05 18:05:19;;;;;;;27.10;15.80;;;3.90;99.90;;;;;;5100859;28;20036;-54
2021/12/05 18:07:45;;;;;;;27.75;16.73;;;3.90;99.90;;;;;;5101123;28;20073;-52
2021/12/05 18:10:13;;;;;;;27.60;16.50;;;3.90;99.90;;;;;;5100323;28;20052;-52
2021/12/05 18:12:39;;;;;;;26.27;15.63;;;3.90;99.90;;;;;;5100869;28;20483;-54